sensor_id;sensor_type;location;lat;lon;timestamp;P1;durP1;ratioP1;P2;durP2;ratioP2
61840;SDS011;47773;53.174;6.614;2022-10-16T00:00:56;5.75;;;1.60;;
61840;SDS011;47773;53.174;6.614;2022-10-16T00:03:22;9.10;;;1.73;;
61840;SDS011;47773;53.174;6.614;2022-10-16T00:05:48;8.60;;;1.92;;
61840;SDS011;47773;53.174;6.614;2022-10-16T00:08:14;11.45;;;1.85;;
61840;SDS011;47773;53.174;6.614;2022-10-16T00:10:39;10.27;;;2.10;;
61840;SDS011;47773;53.174;6.614;2022-10-16T00:13:11;8.80;;;1.90;;
61840;SDS011;47773;53.174;6.614;2022-10-16T00:15:37;10.82;;;2.20;;
61840;SDS011;47773;53.174;6.614;2022-10-16T00:18:04;9.68;;;1.80;;
61840;SDS011;47773;53.174;6.614;2022-10-16T00:20:30;6.32;;;2.13;;
61840;SDS011;47773;53.174;6.614;2022-10-16T00:22:59;7.55;;;2.00;;
61840;SDS011;47773;53.174;6.614;2022-10-16T00:25:25;8.00;;;1.58;;
61840;SDS011;47773;53.174;6.614;2022-10-16T00:27:50;8.98;;;1.98;;
61840;SDS011;47773;53.174;6.614;2022-10-16T00:30:16;6.72;;;2.03;;
61840;SDS011;47773;53.174;6.614;2022-10-16T00:32:42;8.45;;;1.50;;
61840;SDS011;47773;53.174;6.614;2022-10-16T00:35:07;8.60;;;1.67;;
61840;SDS011;47773;53.174;6.614;2022-10-16T00:37:33;12.10;;;1.75;;
61840;SDS011;47773;53.174;6.614;2022-10-16T00:39:59;8.30;;;1.80;;
61840;SDS011;47773;53.174;6.614;2022-10-16T00:42:24;11.10;;;1.80;;
61840;SDS011;47773;53.174;6.614;2022-10-16T00:44:54;8.13;;;1.50;;
61840;SDS011;47773;53.174;6.614;2022-10-16T00:47:26;9.52;;;1.92;;
61840;SDS011;47773;53.174;6.614;2022-10-16T00:49:57;7.43;;;2.10;;
61840;SDS011;47773;53.174;6.614;2022-10-16T00:52:31;8.43;;;1.65;;
61840;SDS011;47773;53.174;6.614;2022-10-16T00:54:57;9.05;;;1.48;;
61840;SDS011;47773;53.174;6.614;2022-10-16T00:57:24;8.02;;;1.90;;
61840;SDS011;47773;53.174;6.614;2022-10-16T00:59:51;8.60;;;1.77;;
61840;SDS011;47773;53.174;6.614;2022-10-16T01:02:17;7.60;;;1.50;;
61840;SDS011;47773;53.174;6.614;2022-10-16T01:04:44;5.03;;;1.27;;
61840;SDS011;47773;53.174;6.614;2022-10-16T01:07:22;10.93;;;1.75;;
61840;SDS011;47773;53.174;6.614;2022-10-16T01:10:01;11.20;;;1.80;;
61840;SDS011;47773;53.174;6.614;2022-10-16T01:12:50;7.63;;;1.52;;
61840;SDS011;47773;53.174;6.614;2022-10-16T01:15:41;9.23;;;1.88;;
61840;SDS011;47773;53.174;6.614;2022-10-16T01:18:18;8.88;;;1.48;;
61840;SDS011;47773;53.174;6.614;2022-10-16T01:21:02;7.43;;;1.73;;
61840;SDS011;47773;53.174;6.614;2022-10-16T01:29:22;4.50;;;1.30;;
61840;SDS011;47773;53.174;6.614;2022-10-16T01:32:02;8.57;;;1.40;;
61840;SDS011;47773;53.174;6.614;2022-10-16T01:34:38;8.35;;;1.80;;
61840;SDS011;47773;53.174;6.614;2022-10-16T01:37:24;7.57;;;1.67;;
61840;SDS011;47773;53.174;6.614;2022-10-16T01:40:16;6.35;;;1.50;;
61840;SDS011;47773;53.174;6.614;2022-10-16T01:42:46;7.97;;;1.88;;
61840;SDS011;47773;53.174;6.614;2022-10-16T01:45:17;9.02;;;1.70;;
61840;SDS011;47773;53.174;6.614;2022-10-16T01:47:45;7.72;;;1.38;;
61840;SDS011;47773;53.174;6.614;2022-10-16T01:50:12;6.78;;;1.77;;
61840;SDS011;47773;53.174;6.614;2022-10-16T01:52:42;6.00;;;1.70;;
61840;SDS011;47773;53.174;6.614;2022-10-16T01:55:12;4.55;;;1.20;;
61840;SDS011;47773;53.174;6.614;2022-10-16T01:57:41;6.07;;;1.70;;
61840;SDS011;47773;53.174;6.614;2022-10-16T02:00:12;5.78;;;1.48;;
61840;SDS011;47773;53.174;6.614;2022-10-16T02:02:40;5.20;;;1.35;;
61840;SDS011;47773;53.174;6.614;2022-10-16T02:05:18;5.50;;;1.70;;
61840;SDS011;47773;53.174;6.614;2022-10-16T02:07:48;8.40;;;1.45;;
61840;SDS011;47773;53.174;6.614;2022-10-16T02:10:14;4.50;;;1.80;;
61840;SDS011;47773;53.174;6.614;2022-10-16T02:12:41;4.13;;;1.50;;
61840;SDS011;47773;53.174;6.614;2022-10-16T02:15:23;11.18;;;2.20;;
61840;SDS011;47773;53.174;6.614;2022-10-16T02:17:49;12.25;;;1.73;;
61840;SDS011;47773;53.174;6.614;2022-10-16T02:20:15;9.70;;;1.60;;
61840;SDS011;47773;53.174;6.614;2022-10-16T02:22:42;7.88;;;1.73;;
61840;SDS011;47773;53.174;6.614;2022-10-16T02:33:07;6.53;;;1.60;;
61840;SDS011;47773;53.174;6.614;2022-10-16T02:35:36;6.00;;;1.83;;
61840;SDS011;47773;53.174;6.614;2022-10-16T02:38:03;9.80;;;1.50;;
61840;SDS011;47773;53.174;6.614;2022-10-16T02:40:30;7.13;;;1.45;;
61840;SDS011;47773;53.174;6.614;2022-10-16T02:42:56;4.68;;;1.50;;
61840;SDS011;47773;53.174;6.614;2022-10-16T02:45:22;4.13;;;1.38;;
61840;SDS011;47773;53.174;6.614;2022-10-16T02:47:48;4.45;;;1.52;;
61840;SDS011;47773;53.174;6.614;2022-10-16T02:50:14;8.55;;;1.65;;
61840;SDS011;47773;53.174;6.614;2022-10-16T02:52:40;6.45;;;2.22;;
61840;SDS011;47773;53.174;6.614;2022-10-16T02:55:06;8.27;;;2.58;;
61840;SDS011;47773;53.174;6.614;2022-10-16T02:57:32;6.38;;;1.48;;
61840;SDS011;47773;53.174;6.614;2022-10-16T02:59:57;4.85;;;1.55;;
61840;SDS011;47773;53.174;6.614;2022-10-16T03:02:23;5.82;;;1.70;;
61840;SDS011;47773;53.174;6.614;2022-10-16T03:04:49;5.32;;;1.85;;
61840;SDS011;47773;53.174;6.614;2022-10-16T03:07:14;8.40;;;1.85;;
61840;SDS011;47773;53.174;6.614;2022-10-16T03:09:40;7.05;;;1.65;;
61840;SDS011;47773;53.174;6.614;2022-10-16T03:12:06;5.10;;;1.58;;
61840;SDS011;47773;53.174;6.614;2022-10-16T03:14:32;3.67;;;1.55;;
61840;SDS011;47773;53.174;6.614;2022-10-16T03:16:58;7.80;;;1.73;;
61840;SDS011;47773;53.174;6.614;2022-10-16T03:19:24;6.22;;;1.77;;
61840;SDS011;47773;53.174;6.614;2022-10-16T03:21:49;4.15;;;1.40;;
61840;SDS011;47773;53.174;6.614;2022-10-16T03:24:15;5.97;;;1.63;;
61840;SDS011;47773;53.174;6.614;2022-10-16T03:26:40;5.75;;;1.70;;
61840;SDS011;47773;53.174;6.614;2022-10-16T03:29:06;6.22;;;1.80;;
61840;SDS011;47773;53.174;6.614;2022-10-16T03:31:32;4.38;;;1.40;;
61840;SDS011;47773;53.174;6.614;2022-10-16T03:33:58;9.95;;;1.67;;
61840;SDS011;47773;53.174;6.614;2022-10-16T03:36:24;6.75;;;1.80;;
61840;SDS011;47773;53.174;6.614;2022-10-16T03:38:49;6.05;;;1.80;;
61840;SDS011;47773;53.174;6.614;2022-10-16T03:41:15;7.22;;;1.70;;
61840;SDS011;47773;53.174;6.614;2022-10-16T03:43:41;6.55;;;1.83;;
61840;SDS011;47773;53.174;6.614;2022-10-16T03:46:06;7.82;;;1.98;;
61840;SDS011;47773;53.174;6.614;2022-10-16T03:48:32;8.82;;;1.75;;
61840;SDS011;47773;53.174;6.614;2022-10-16T03:50:57;3.08;;;1.55;;
61840;SDS011;47773;53.174;6.614;2022-10-16T03:53:23;7.57;;;2.05;;
61840;SDS011;47773;53.174;6.614;2022-10-16T03:55:49;6.60;;;1.70;;
61840;SDS011;47773;53.174;6.614;2022-10-16T03:58:15;4.38;;;1.52;;
61840;SDS011;47773;53.174;6.614;2022-10-16T04:00:41;5.45;;;1.80;;
61840;SDS011;47773;53.174;6.614;2022-10-16T04:03:08;7.45;;;1.70;;
61840;SDS011;47773;53.174;6.614;2022-10-16T04:05:34;5.07;;;1.55;;
61840;SDS011;47773;53.174;6.614;2022-10-16T04:08:00;4.78;;;1.75;;
61840;SDS011;47773;53.174;6.614;2022-10-16T04:10:25;5.05;;;1.90;;
61840;SDS011;47773;53.174;6.614;2022-10-16T04:12:51;9.88;;;1.77;;
61840;SDS011;47773;53.174;6.614;2022-10-16T04:15:19;4.75;;;2.00;;
61840;SDS011;47773;53.174;6.614;2022-10-16T04:17:45;4.82;;;2.03;;
61840;SDS011;47773;53.174;6.614;2022-10-16T04:20:10;6.70;;;1.83;;
61840;SDS011;47773;53.174;6.614;2022-10-16T04:22:36;3.08;;;1.70;;
61840;SDS011;47773;53.174;6.614;2022-10-16T04:25:02;5.43;;;1.77;;
61840;SDS011;47773;53.174;6.614;2022-10-16T04:27:27;6.68;;;2.03;;
61840;SDS011;47773;53.174;6.614;2022-10-16T04:29:53;5.53;;;1.98;;
61840;SDS011;47773;53.174;6.614;2022-10-16T04:32:19;5.72;;;1.52;;
61840;SDS011;47773;53.174;6.614;2022-10-16T04:34:44;8.82;;;2.00;;
61840;SDS011;47773;53.174;6.614;2022-10-16T04:37:10;8.85;;;1.90;;
61840;SDS011;47773;53.174;6.614;2022-10-16T04:39:35;6.93;;;2.28;;
61840;SDS011;47773;53.174;6.614;2022-10-16T04:42:01;4.25;;;1.98;;
61840;SDS011;47773;53.174;6.614;2022-10-16T04:44:27;4.13;;;2.10;;
61840;SDS011;47773;53.174;6.614;2022-10-16T04:46:53;12.50;;;1.83;;
61840;SDS011;47773;53.174;6.614;2022-10-16T04:49:18;6.13;;;2.08;;
61840;SDS011;47773;53.174;6.614;2022-10-16T04:51:44;7.03;;;2.03;;
61840;SDS011;47773;53.174;6.614;2022-10-16T04:54:10;5.95;;;1.85;;
61840;SDS011;47773;53.174;6.614;2022-10-16T04:56:35;3.80;;;1.73;;
61840;SDS011;47773;53.174;6.614;2022-10-16T04:59:08;9.63;;;1.67;;
61840;SDS011;47773;53.174;6.614;2022-10-16T05:01:34;5.93;;;1.80;;
61840;SDS011;47773;53.174;6.614;2022-10-16T05:04:00;4.03;;;1.70;;
61840;SDS011;47773;53.174;6.614;2022-10-16T05:06:26;5.47;;;1.88;;
61840;SDS011;47773;53.174;6.614;2022-10-16T05:08:51;8.02;;;1.80;;
61840;SDS011;47773;53.174;6.614;2022-10-16T05:11:17;5.57;;;2.00;;
61840;SDS011;47773;53.174;6.614;2022-10-16T05:13:43;7.78;;;2.25;;
61840;SDS011;47773;53.174;6.614;2022-10-16T05:16:08;7.57;;;2.45;;
61840;SDS011;47773;53.174;6.614;2022-10-16T05:18:34;7.85;;;2.10;;
61840;SDS011;47773;53.174;6.614;2022-10-16T05:20:59;7.13;;;2.20;;
61840;SDS011;47773;53.174;6.614;2022-10-16T05:23:25;6.68;;;2.63;;
61840;SDS011;47773;53.174;6.614;2022-10-16T05:25:54;12.27;;;2.40;;
61840;SDS011;47773;53.174;6.614;2022-10-16T05:28:23;6.63;;;1.92;;
61840;SDS011;47773;53.174;6.614;2022-10-16T05:30:49;6.53;;;2.38;;
61840;SDS011;47773;53.174;6.614;2022-10-16T05:33:15;4.88;;;2.13;;
61840;SDS011;47773;53.174;6.614;2022-10-16T05:35:41;8.85;;;2.10;;
61840;SDS011;47773;53.174;6.614;2022-10-16T05:38:06;3.40;;;1.98;;
61840;SDS011;47773;53.174;6.614;2022-10-16T05:40:32;7.22;;;2.08;;
61840;SDS011;47773;53.174;6.614;2022-10-16T05:42:58;8.50;;;2.55;;
61840;SDS011;47773;53.174;6.614;2022-10-16T05:45:23;7.30;;;2.20;;
61840;SDS011;47773;53.174;6.614;2022-10-16T05:47:49;8.15;;;2.25;;
61840;SDS011;47773;53.174;6.614;2022-10-16T05:50:15;4.75;;;2.17;;
61840;SDS011;47773;53.174;6.614;2022-10-16T05:52:40;16.30;;;2.50;;
61840;SDS011;47773;53.174;6.614;2022-10-16T05:55:06;6.65;;;2.20;;
61840;SDS011;47773;53.174;6.614;2022-10-16T05:57:32;7.72;;;2.60;;
61840;SDS011;47773;53.174;6.614;2022-10-16T05:59:57;6.80;;;2.78;;
61840;SDS011;47773;53.174;6.614;2022-10-16T06:02:23;5.38;;;2.50;;
61840;SDS011;47773;53.174;6.614;2022-10-16T06:04:49;11.35;;;2.67;;
61840;SDS011;47773;53.174;6.614;2022-10-16T06:07:16;8.65;;;2.15;;
61840;SDS011;47773;53.174;6.614;2022-10-16T06:09:42;8.02;;;2.33;;
61840;SDS011;47773;53.174;6.614;2022-10-16T06:12:07;9.60;;;2.28;;
61840;SDS011;47773;53.174;6.614;2022-10-16T06:14:33;5.15;;;2.42;;
61840;SDS011;47773;53.174;6.614;2022-10-16T06:16:59;6.90;;;2.38;;
61840;SDS011;47773;53.174;6.614;2022-10-16T06:19:24;7.15;;;2.60;;
61840;SDS011;47773;53.174;6.614;2022-10-16T06:21:50;8.55;;;2.50;;
61840;SDS011;47773;53.174;6.614;2022-10-16T06:24:16;7.18;;;2.85;;
61840;SDS011;47773;53.174;6.614;2022-10-16T06:26:41;6.15;;;2.40;;
61840;SDS011;47773;53.174;6.614;2022-10-16T06:29:07;4.45;;;2.08;;
61840;SDS011;47773;53.174;6.614;2022-10-16T06:31:33;9.07;;;2.90;;
61840;SDS011;47773;53.174;6.614;2022-10-16T06:33:59;8.48;;;2.58;;
61840;SDS011;47773;53.174;6.614;2022-10-16T06:36:25;8.38;;;2.28;;
61840;SDS011;47773;53.174;6.614;2022-10-16T06:38:51;6.60;;;2.78;;
61840;SDS011;47773;53.174;6.614;2022-10-16T06:41:19;6.85;;;2.80;;
61840;SDS011;47773;53.174;6.614;2022-10-16T06:43:46;4.90;;;2.30;;
61840;SDS011;47773;53.174;6.614;2022-10-16T06:46:13;4.72;;;1.92;;
61840;SDS011;47773;53.174;6.614;2022-10-16T06:48:41;9.00;;;2.20;;
61840;SDS011;47773;53.174;6.614;2022-10-16T06:51:08;5.75;;;2.10;;
61840;SDS011;47773;53.174;6.614;2022-10-16T06:53:36;6.30;;;2.28;;
61840;SDS011;47773;53.174;6.614;2022-10-16T06:56:07;6.75;;;1.92;;
61840;SDS011;47773;53.174;6.614;2022-10-16T06:58:34;9.75;;;2.28;;
61840;SDS011;47773;53.174;6.614;2022-10-16T07:00:59;10.55;;;2.30;;
61840;SDS011;47773;53.174;6.614;2022-10-16T07:03:25;5.88;;;1.90;;
61840;SDS011;47773;53.174;6.614;2022-10-16T07:05:50;6.90;;;2.05;;
61840;SDS011;47773;53.174;6.614;2022-10-16T07:08:16;8.77;;;2.13;;
61840;SDS011;47773;53.174;6.614;2022-10-16T07:10:42;10.50;;;2.13;;
61840;SDS011;47773;53.174;6.614;2022-10-16T07:13:07;6.55;;;2.10;;
61840;SDS011;47773;53.174;6.614;2022-10-16T07:15:33;5.47;;;2.28;;
61840;SDS011;47773;53.174;6.614;2022-10-16T07:17:59;9.20;;;2.40;;
61840;SDS011;47773;53.174;6.614;2022-10-16T07:20:25;5.85;;;2.00;;
61840;SDS011;47773;53.174;6.614;2022-10-16T07:22:51;9.90;;;2.17;;
61840;SDS011;47773;53.174;6.614;2022-10-16T07:25:17;10.57;;;2.30;;
61840;SDS011;47773;53.174;6.614;2022-10-16T07:27:43;5.10;;;1.98;;
61840;SDS011;47773;53.174;6.614;2022-10-16T07:30:09;6.18;;;1.92;;
61840;SDS011;47773;53.174;6.614;2022-10-16T07:32:34;6.38;;;1.95;;
61840;SDS011;47773;53.174;6.614;2022-10-16T07:35:00;6.68;;;1.83;;
61840;SDS011;47773;53.174;6.614;2022-10-16T07:37:25;5.28;;;2.20;;
61840;SDS011;47773;53.174;6.614;2022-10-16T07:39:51;5.65;;;2.20;;
61840;SDS011;47773;53.174;6.614;2022-10-16T07:42:17;4.20;;;1.77;;
61840;SDS011;47773;53.174;6.614;2022-10-16T07:44:42;4.35;;;1.92;;
61840;SDS011;47773;53.174;6.614;2022-10-16T07:47:08;7.68;;;2.28;;
61840;SDS011;47773;53.174;6.614;2022-10-16T07:49:34;8.75;;;2.38;;
61840;SDS011;47773;53.174;6.614;2022-10-16T07:51:59;5.85;;;2.20;;
61840;SDS011;47773;53.174;6.614;2022-10-16T07:54:25;7.25;;;1.90;;
61840;SDS011;47773;53.174;6.614;2022-10-16T07:56:51;6.28;;;1.98;;
61840;SDS011;47773;53.174;6.614;2022-10-16T07:59:16;7.43;;;1.95;;
61840;SDS011;47773;53.174;6.614;2022-10-16T08:01:42;12.98;;;2.55;;
61840;SDS011;47773;53.174;6.614;2022-10-16T08:04:08;6.68;;;1.88;;
61840;SDS011;47773;53.174;6.614;2022-10-16T08:06:35;5.97;;;2.22;;
61840;SDS011;47773;53.174;6.614;2022-10-16T08:09:03;11.02;;;2.53;;
61840;SDS011;47773;53.174;6.614;2022-10-16T08:11:29;7.32;;;2.03;;
61840;SDS011;47773;53.174;6.614;2022-10-16T08:13:54;8.00;;;2.28;;
61840;SDS011;47773;53.174;6.614;2022-10-16T08:16:20;12.35;;;2.17;;
61840;SDS011;47773;53.174;6.614;2022-10-16T08:18:46;6.78;;;2.00;;
61840;SDS011;47773;53.174;6.614;2022-10-16T08:21:13;7.22;;;2.17;;
61840;SDS011;47773;53.174;6.614;2022-10-16T08:23:40;8.55;;;1.98;;
61840;SDS011;47773;53.174;6.614;2022-10-16T08:26:06;5.47;;;1.95;;
61840;SDS011;47773;53.174;6.614;2022-10-16T08:28:33;4.47;;;1.80;;
61840;SDS011;47773;53.174;6.614;2022-10-16T08:31:15;6.95;;;1.60;;
61840;SDS011;47773;53.174;6.614;2022-10-16T08:33:41;6.50;;;1.73;;
61840;SDS011;47773;53.174;6.614;2022-10-16T08:36:09;7.72;;;1.60;;
61840;SDS011;47773;53.174;6.614;2022-10-16T08:38:35;5.53;;;1.50;;
61840;SDS011;47773;53.174;6.614;2022-10-16T08:41:27;10.35;;;1.40;;
61840;SDS011;47773;53.174;6.614;2022-10-16T08:49:36;5.57;;;1.35;;
61840;SDS011;47773;53.174;6.614;2022-10-16T08:52:08;6.72;;;1.50;;
61840;SDS011;47773;53.174;6.614;2022-10-16T08:54:39;8.23;;;1.57;;
61840;SDS011;47773;53.174;6.614;2022-10-16T08:57:16;7.40;;;1.25;;
61840;SDS011;47773;53.174;6.614;2022-10-16T08:59:45;7.30;;;1.40;;
61840;SDS011;47773;53.174;6.614;2022-10-16T09:05:10;6.60;;;1.50;;
61840;SDS011;47773;53.174;6.614;2022-10-16T09:10:55;7.18;;;1.25;;
61840;SDS011;47773;53.174;6.614;2022-10-16T09:13:41;8.23;;;1.40;;
61840;SDS011;47773;53.174;6.614;2022-10-16T09:16:27;7.35;;;1.60;;
61840;SDS011;47773;53.174;6.614;2022-10-16T09:19:15;7.23;;;1.50;;
61840;SDS011;47773;53.174;6.614;2022-10-16T09:21:56;5.63;;;1.40;;
61840;SDS011;47773;53.174;6.614;2022-10-16T09:24:25;6.35;;;1.45;;
61840;SDS011;47773;53.174;6.614;2022-10-16T09:26:51;10.50;;;1.42;;
61840;SDS011;47773;53.174;6.614;2022-10-16T09:29:18;4.22;;;1.35;;
61840;SDS011;47773;53.174;6.614;2022-10-16T09:31:45;5.45;;;1.23;;
61840;SDS011;47773;53.174;6.614;2022-10-16T09:34:17;6.03;;;1.50;;
61840;SDS011;47773;53.174;6.614;2022-10-16T09:36:46;12.43;;;1.35;;
61840;SDS011;47773;53.174;6.614;2022-10-16T09:39:12;12.40;;;1.75;;
61840;SDS011;47773;53.174;6.614;2022-10-16T09:41:38;8.43;;;1.52;;
61840;SDS011;47773;53.174;6.614;2022-10-16T09:44:21;10.82;;;1.50;;
61840;SDS011;47773;53.174;6.614;2022-10-16T09:47:04;9.27;;;1.40;;
61840;SDS011;47773;53.174;6.614;2022-10-16T09:49:37;5.65;;;1.33;;
61840;SDS011;47773;53.174;6.614;2022-10-16T09:52:04;13.25;;;2.00;;
61840;SDS011;47773;53.174;6.614;2022-10-16T09:54:30;6.72;;;1.60;;
61840;SDS011;47773;53.174;6.614;2022-10-16T09:57:06;8.45;;;1.75;;
61840;SDS011;47773;53.174;6.614;2022-10-16T09:59:32;16.80;;;1.77;;
61840;SDS011;47773;53.174;6.614;2022-10-16T10:02:01;14.55;;;2.20;;
61840;SDS011;47773;53.174;6.614;2022-10-16T10:04:42;12.30;;;2.15;;
61840;SDS011;47773;53.174;6.614;2022-10-16T10:07:18;14.30;;;2.65;;
61840;SDS011;47773;53.174;6.614;2022-10-16T10:09:48;9.38;;;1.58;;
61840;SDS011;47773;53.174;6.614;2022-10-16T10:12:18;12.68;;;1.92;;
61840;SDS011;47773;53.174;6.614;2022-10-16T10:14:56;12.73;;;2.03;;
61840;SDS011;47773;53.174;6.614;2022-10-16T10:17:29;8.02;;;1.70;;
61840;SDS011;47773;53.174;6.614;2022-10-16T10:19:56;14.93;;;1.90;;
61840;SDS011;47773;53.174;6.614;2022-10-16T10:22:27;19.33;;;1.85;;
61840;SDS011;47773;53.174;6.614;2022-10-16T10:27:43;9.20;;;1.73;;
61840;SDS011;47773;53.174;6.614;2022-10-16T10:34:03;16.02;;;1.58;;
61840;SDS011;47773;53.174;6.614;2022-10-16T10:36:38;17.70;;;2.00;;
61840;SDS011;47773;53.174;6.614;2022-10-16T10:50:10;15.30;;;1.90;;
61840;SDS011;47773;53.174;6.614;2022-10-16T10:52:52;15.80;;;1.73;;
61840;SDS011;47773;53.174;6.614;2022-10-16T11:06:23;11.25;;;1.48;;
61840;SDS011;47773;53.174;6.614;2022-10-16T11:09:11;16.00;;;1.60;;
61840;SDS011;47773;53.174;6.614;2022-10-16T11:11:42;14.35;;;2.03;;
61840;SDS011;47773;53.174;6.614;2022-10-16T11:22:29;22.90;;;1.70;;
61840;SDS011;47773;53.174;6.614;2022-10-16T11:25:02;13.35;;;1.52;;
61840;SDS011;47773;53.174;6.614;2022-10-16T11:30:22;11.50;;;1.40;;
61840;SDS011;47773;53.174;6.614;2022-10-16T11:35:52;14.35;;;1.48;;
61840;SDS011;47773;53.174;6.614;2022-10-16T11:38:40;15.27;;;1.85;;
61840;SDS011;47773;53.174;6.614;2022-10-16T11:41:34;11.35;;;1.58;;
61840;SDS011;47773;53.174;6.614;2022-10-16T11:46:32;15.05;;;1.95;;
61840;SDS011;47773;53.174;6.614;2022-10-16T11:49:03;14.77;;;2.00;;
61840;SDS011;47773;53.174;6.614;2022-10-16T11:51:38;13.80;;;1.55;;
61840;SDS011;47773;53.174;6.614;2022-10-16T11:54:26;11.30;;;1.40;;
61840;SDS011;47773;53.174;6.614;2022-10-16T11:57:01;10.95;;;1.67;;
61840;SDS011;47773;53.174;6.614;2022-10-16T11:59:38;8.50;;;1.30;;
61840;SDS011;47773;53.174;6.614;2022-10-16T12:08:04;14.13;;;2.08;;
61840;SDS011;47773;53.174;6.614;2022-10-16T12:10:32;18.52;;;1.73;;
61840;SDS011;47773;53.174;6.614;2022-10-16T12:13:02;25.27;;;2.00;;
61840;SDS011;47773;53.174;6.614;2022-10-16T12:15:48;17.13;;;1.85;;
61840;SDS011;47773;53.174;6.614;2022-10-16T12:18:21;15.80;;;1.70;;
61840;SDS011;47773;53.174;6.614;2022-10-16T12:20:54;16.95;;;1.98;;
61840;SDS011;47773;53.174;6.614;2022-10-16T12:23:33;16.13;;;1.55;;
61840;SDS011;47773;53.174;6.614;2022-10-16T12:26:02;18.50;;;2.03;;
61840;SDS011;47773;53.174;6.614;2022-10-16T12:28:30;13.52;;;1.48;;
61840;SDS011;47773;53.174;6.614;2022-10-16T12:31:04;16.48;;;1.65;;
61840;SDS011;47773;53.174;6.614;2022-10-16T12:33:40;12.77;;;2.50;;
61840;SDS011;47773;53.174;6.614;2022-10-16T12:36:15;18.20;;;1.73;;
61840;SDS011;47773;53.174;6.614;2022-10-16T12:38:52;8.35;;;1.35;;
61840;SDS011;47773;53.174;6.614;2022-10-16T12:41:29;18.52;;;1.73;;
61840;SDS011;47773;53.174;6.614;2022-10-16T12:43:56;13.68;;;1.15;;
61840;SDS011;47773;53.174;6.614;2022-10-16T12:51:39;16.13;;;1.83;;
61840;SDS011;47773;53.174;6.614;2022-10-16T12:54:19;14.65;;;2.03;;
61840;SDS011;47773;53.174;6.614;2022-10-16T13:02:40;9.40;;;1.77;;
61840;SDS011;47773;53.174;6.614;2022-10-16T13:05:38;14.00;;;1.38;;
61840;SDS011;47773;53.174;6.614;2022-10-16T13:29:43;17.25;;;1.95;;
61840;SDS011;47773;53.174;6.614;2022-10-16T13:32:10;11.25;;;1.65;;
61840;SDS011;47773;53.174;6.614;2022-10-16T13:34:46;12.95;;;1.70;;
61840;SDS011;47773;53.174;6.614;2022-10-16T13:37:20;20.05;;;1.70;;
61840;SDS011;47773;53.174;6.614;2022-10-16T13:39:47;14.20;;;1.80;;
61840;SDS011;47773;53.174;6.614;2022-10-16T13:42:20;14.80;;;1.30;;
61840;SDS011;47773;53.174;6.614;2022-10-16T13:44:51;19.05;;;1.65;;
61840;SDS011;47773;53.174;6.614;2022-10-16T13:47:19;10.30;;;1.20;;
61840;SDS011;47773;53.174;6.614;2022-10-16T13:50:03;9.40;;;1.27;;
61840;SDS011;47773;53.174;6.614;2022-10-16T13:52:37;11.43;;;1.40;;
61840;SDS011;47773;53.174;6.614;2022-10-16T13:55:03;13.20;;;2.35;;
61840;SDS011;47773;53.174;6.614;2022-10-16T13:57:35;15.38;;;1.80;;
61840;SDS011;47773;53.174;6.614;2022-10-16T14:00:00;12.85;;;1.60;;
61840;SDS011;47773;53.174;6.614;2022-10-16T14:02:27;16.98;;;2.33;;
61840;SDS011;47773;53.174;6.614;2022-10-16T14:05:02;21.85;;;2.22;;
61840;SDS011;47773;53.174;6.614;2022-10-16T14:07:30;15.85;;;1.95;;
61840;SDS011;47773;53.174;6.614;2022-10-16T14:10:32;11.90;;;1.77;;
61840;SDS011;47773;53.174;6.614;2022-10-16T14:13:02;15.82;;;2.00;;
61840;SDS011;47773;53.174;6.614;2022-10-16T14:15:30;12.35;;;1.65;;
61840;SDS011;47773;53.174;6.614;2022-10-16T14:17:57;17.55;;;2.00;;
61840;SDS011;47773;53.174;6.614;2022-10-16T14:20:24;16.80;;;1.67;;
61840;SDS011;47773;53.174;6.614;2022-10-16T14:23:03;13.73;;;1.52;;
61840;SDS011;47773;53.174;6.614;2022-10-16T14:25:49;17.67;;;2.28;;
61840;SDS011;47773;53.174;6.614;2022-10-16T14:28:15;13.95;;;2.05;;
61840;SDS011;47773;53.174;6.614;2022-10-16T14:30:56;18.45;;;1.52;;
61840;SDS011;47773;53.174;6.614;2022-10-16T14:38:36;19.15;;;1.90;;
61840;SDS011;47773;53.174;6.614;2022-10-16T14:41:04;16.40;;;1.80;;
61840;SDS011;47773;53.174;6.614;2022-10-16T14:43:37;12.43;;;1.88;;
61840;SDS011;47773;53.174;6.614;2022-10-16T14:46:10;15.23;;;1.88;;
61840;SDS011;47773;53.174;6.614;2022-10-16T14:48:42;11.70;;;1.63;;
61840;SDS011;47773;53.174;6.614;2022-10-16T14:51:13;19.83;;;1.98;;
61840;SDS011;47773;53.174;6.614;2022-10-16T14:53:40;10.77;;;1.55;;
61840;SDS011;47773;53.174;6.614;2022-10-16T14:56:09;19.50;;;2.17;;
61840;SDS011;47773;53.174;6.614;2022-10-16T14:58:42;15.13;;;2.25;;
61840;SDS011;47773;53.174;6.614;2022-10-16T15:01:09;12.95;;;1.48;;
61840;SDS011;47773;53.174;6.614;2022-10-16T15:03:36;13.93;;;2.00;;
61840;SDS011;47773;53.174;6.614;2022-10-16T15:06:02;16.27;;;1.90;;
61840;SDS011;47773;53.174;6.614;2022-10-16T15:08:28;14.88;;;2.30;;
61840;SDS011;47773;53.174;6.614;2022-10-16T15:10:54;15.85;;;2.03;;
61840;SDS011;47773;53.174;6.614;2022-10-16T15:13:19;15.48;;;1.50;;
61840;SDS011;47773;53.174;6.614;2022-10-16T15:15:45;12.60;;;1.83;;
61840;SDS011;47773;53.174;6.614;2022-10-16T15:18:12;15.88;;;2.10;;
61840;SDS011;47773;53.174;6.614;2022-10-16T15:20:40;19.73;;;2.80;;
61840;SDS011;47773;53.174;6.614;2022-10-16T15:23:10;16.17;;;2.45;;
61840;SDS011;47773;53.174;6.614;2022-10-16T15:25:41;12.70;;;2.95;;
61840;SDS011;47773;53.174;6.614;2022-10-16T15:28:11;10.85;;;2.00;;
61840;SDS011;47773;53.174;6.614;2022-10-16T15:30:38;10.77;;;2.17;;
61840;SDS011;47773;53.174;6.614;2022-10-16T15:33:04;16.35;;;2.78;;
61840;SDS011;47773;53.174;6.614;2022-10-16T15:35:36;12.35;;;2.88;;
61840;SDS011;47773;53.174;6.614;2022-10-16T15:38:01;12.73;;;2.90;;
61840;SDS011;47773;53.174;6.614;2022-10-16T15:40:27;16.17;;;2.20;;
61840;SDS011;47773;53.174;6.614;2022-10-16T15:42:52;16.10;;;3.05;;
61840;SDS011;47773;53.174;6.614;2022-10-16T15:45:18;13.88;;;2.17;;
61840;SDS011;47773;53.174;6.614;2022-10-16T15:47:44;13.48;;;3.00;;
61840;SDS011;47773;53.174;6.614;2022-10-16T15:50:11;16.67;;;2.33;;
61840;SDS011;47773;53.174;6.614;2022-10-16T15:52:38;12.80;;;2.50;;
61840;SDS011;47773;53.174;6.614;2022-10-16T15:55:10;12.43;;;2.05;;
61840;SDS011;47773;53.174;6.614;2022-10-16T15:57:37;11.57;;;2.30;;
61840;SDS011;47773;53.174;6.614;2022-10-16T16:00:06;14.15;;;2.38;;
61840;SDS011;47773;53.174;6.614;2022-10-16T16:02:34;18.02;;;2.80;;
61840;SDS011;47773;53.174;6.614;2022-10-16T16:04:59;14.90;;;2.67;;
61840;SDS011;47773;53.174;6.614;2022-10-16T16:07:26;16.73;;;2.20;;
61840;SDS011;47773;53.174;6.614;2022-10-16T16:09:52;15.30;;;2.30;;
61840;SDS011;47773;53.174;6.614;2022-10-16T16:12:18;13.38;;;2.20;;
61840;SDS011;47773;53.174;6.614;2022-10-16T16:14:44;13.98;;;2.45;;
61840;SDS011;47773;53.174;6.614;2022-10-16T16:17:11;16.02;;;2.85;;
61840;SDS011;47773;53.174;6.614;2022-10-16T16:19:36;11.45;;;2.67;;
61840;SDS011;47773;53.174;6.614;2022-10-16T16:22:02;14.90;;;2.80;;
61840;SDS011;47773;53.174;6.614;2022-10-16T16:24:28;15.20;;;3.10;;
61840;SDS011;47773;53.174;6.614;2022-10-16T16:26:53;10.40;;;2.63;;
61840;SDS011;47773;53.174;6.614;2022-10-16T16:29:19;14.35;;;2.50;;
61840;SDS011;47773;53.174;6.614;2022-10-16T16:31:45;11.27;;;2.33;;
61840;SDS011;47773;53.174;6.614;2022-10-16T16:34:12;10.95;;;2.20;;
61840;SDS011;47773;53.174;6.614;2022-10-16T16:36:38;13.32;;;2.30;;
61840;SDS011;47773;53.174;6.614;2022-10-16T16:39:05;16.90;;;2.38;;
61840;SDS011;47773;53.174;6.614;2022-10-16T16:41:32;15.52;;;2.75;;
61840;SDS011;47773;53.174;6.614;2022-10-16T16:44:05;13.18;;;2.80;;
61840;SDS011;47773;53.174;6.614;2022-10-16T16:46:33;14.18;;;2.80;;
61840;SDS011;47773;53.174;6.614;2022-10-16T16:48:59;16.30;;;3.40;;